Flinterduin — PEBT — position and weather

sailwx.info

Track history (hours):
 
Tides and Currents Weather Stations Pressure Air Temp Water Temp Dewpoint Dewpoint Depression Visibility Wind Speed Wind Dir Waves Ship Positions

Flinterduin

Last reported at 2014-Jul-16 12:00 UTC. Time now 2014-Jul-24 17:51 UTC.
Position N 34°00' W 007°18'.
Warning: this ship's position is 8 days out of date.

Length 112 m; beam 15 m.

Type: Cargo ship. MMSI: 246484000.

Wind from 300 at 7 knots

Waves 0.5 meters (2 feet), 3 second period

Barometer 1016.2 mb
Air temperature 25.0 ° C
Visibility: greater than 5.4 NM
Dewpoint 22.2 ° C

Date/timePositionNaut miles runAvg speedWind from/ knotsBaromVisibWave heightAir tempDewpointWater temp
2014-Jul-16 12:00N 34°00' W 007°18'151 8.5 300 / 71016.2 5.4 0.525.022.2
2014-Jul-15 18:13N 35°54' W 005°18'6911.1
2014-Jul-15 12:00N 36°06' W 003°54'28312.5 999 / 4 5.4 27.521.1
2014-Jul-14 13:19N 36°55' E 001°53'2523.0
2014-Jul-14 12:14N 36°58' E 002°24'1145.5
2014-Jul-14 12:00N 36°54' E 002°12'716.1 999 / 41016.3 5.4 27.021.3
2014-Jul-14 11:33N 36°58' E 002°19'1211.6
2014-Jul-14 10:33N 36°60' E 002°34'1211.5
2014-Jul-14 09:31N 37°02' E 002°48'1211.9
2014-Jul-14 08:33N 37°03' E 003°03'2711.5
2014-Jul-14 06:10N 37°07' E 003°37'1211.5
2014-Jul-14 05:10N 37°09' E 003°51'711.9
2014-Jul-14 04:34N 37°10' E 004°00'1212.2
2014-Jul-14 03:33N 37°12' E 004°15'1212.1
2014-Jul-14 02:33N 37°14' E 004°30'2712.2
2014-Jul-14 00:19N 37°19' E 005°04'2612.5
2014-Jul-13 22:14N 37°25' E 005°36'811.4
2014-Jul-13 21:30N 37°26' E 005°46'38611.5
2014-Jul-12 12:00N 36°48' E 013°48'   270 / 71015.8 5.4 0.524.519.4
Track history (hours):
 
Tides and Currents Weather Stations Pressure Air Temp Water Temp Dewpoint Dewpoint Depression Visibility Wind Speed Wind Dir Waves Ship Positions

Flinterduin

Last reported at 2014-Jul-16 12:00 UTC. Time now 2014-Jul-24 17:51 UTC.
Position N 34°00' W 007°18'.
Warning: this ship's position is 8 days out of date.

Length 112 m; beam 15 m.

Type: Cargo ship. MMSI: 246484000.

Wind from 300 at 7 knots

Waves 0.5 meters (2 feet), 3 second period

Barometer 1016.2 mb
Air temperature 25.0 ° C
Visibility: greater than 5.4 NM
Dewpoint 22.2 ° C

Date/timePositionNaut miles runAvg speedWind from/ knotsBaromVisibWave heightAir tempDewpointWater temp
2014-Jul-16 12:00N 34°00' W 007°18'151 8.5 300 / 71016.2 5.4 0.525.022.2
2014-Jul-15 18:13N 35°54' W 005°18'6911.1
2014-Jul-15 12:00N 36°06' W 003°54'28312.5 999 / 4 5.4 27.521.1
2014-Jul-14 13:19N 36°55' E 001°53'2523.0
2014-Jul-14 12:14N 36°58' E 002°24'1145.5
2014-Jul-14 12:00N 36°54' E 002°12'716.1 999 / 41016.3 5.4 27.021.3
2014-Jul-14 11:33N 36°58' E 002°19'1211.6
2014-Jul-14 10:33N 36°60' E 002°34'1211.5
2014-Jul-14 09:31N 37°02' E 002°48'1211.9
2014-Jul-14 08:33N 37°03' E 003°03'2711.5
2014-Jul-14 06:10N 37°07' E 003°37'1211.5
2014-Jul-14 05:10N 37°09' E 003°51'711.9
2014-Jul-14 04:34N 37°10' E 004°00'1212.2
2014-Jul-14 03:33N 37°12' E 004°15'1212.1
2014-Jul-14 02:33N 37°14' E 004°30'2712.2
2014-Jul-14 00:19N 37°19' E 005°04'2612.5
2014-Jul-13 22:14N 37°25' E 005°36'811.4
2014-Jul-13 21:30N 37°26' E 005°46'38611.5
2014-Jul-12 12:00N 36°48' E 013°48'   270 / 71015.8 5.4 0.524.519.4

Dump ship's entire track history